Hamilton Airport, Ontario

12:15 PM EDT on August 30, 2014 (GMT -0400)
Hamilton | Change Station
CLOSE
Current Station
Airport
Location: Hamilton Airport,
Elevation: 781 ft
Nearby Weather Stations

Elev 781 ft 43.17 °N, 79.93 °W | Updated 15 minutes ago

Scattered Clouds
Scattered Clouds
79 °F
Feels Like 79 °F
N
16
Wind Variable Wind from SW

Today is forecast to be nearly the same temperature as yesterday.

Today
High -- | Low -- °F
--% Chance of Precip.
Yesterday
High -- | Low -- °F
Precip. -- in
6:41 AM 7:58 PM
Waxing Crescent, 23% visible
Pressure 30.00 in
Visibility 15.0 miles
Clouds Few 19000 ft
Scattered Clouds 25000 ft
Dew Point 66 °F
Humidity 65%
Rainfall 0.00 in
Snow Depth Not available.
UV 6 out of 12
Pollen Not available.
Air Quality Not available.
Flu Activity Not available.
METAR CYHM 301600Z 22014KT 15SM FEW190 SCT250 26/19 A3000 RMK AC2CI2 SLP158 DENSITY ALT 2100FT

More Conditions Fewer Conditions

Pressure 30.00 in
Visibility 15.0 miles
Clouds Few 19000 ft
Scattered Clouds 25000 ft
Dew Point 66 °F
Humidity 65%
Rainfall 0.00 in
Snow Depth Not available.
UV 6 out of 12
Pollen Not available.
Air Quality Not available.
Flu Activity Not available.
METAR CYHM 301600Z 22014KT 15SM FEW190 SCT250 26/19 A3000 RMK AC2CI2 SLP158 DENSITY ALT 2100FT

More Conditions Fewer Conditions

10-Day Weather Forecast

Almanac

Astronomy

Aug. 30, 2014 Rise Set
Actual Time 6:41 AM EDT 7:58 PM EDT
Civil Twilight 6:12 AM EDT 8:27 PM EDT
Nautical Twilight 5:36 AM EDT 9:02 PM EDT
Astronomical Twilight 4:59 AM EDT 9:39 PM EDT
Moon 11:36 AM EDT 10:22 PM EDT
Length of Visible Light 14h 15m
Length of Day
13h 16m
Tomorrow will be 2m 49s shorter.
Waxing Crescent, 23% of the Moon is Illuminated
Today
Waxing Crescent
Sep 2
First Quarter
Sep 8
Full
Sep 15
Last Quarter
Sep 24
New

Today's Extremes

Country Highs Country Lows

Community

WunderPhotos

Upload Photos

1,748,556 photos uploaded!

WunderBlogs® & News

Nearby

Snow Depth

Not available.

Earthquake Activity

City Distance Mag. Time & Date
No recent earthquake activity has been reported nearby.
Minimum magnitude displayed is 2.5.

Coastal Water Temperatures

Place Temperature
No Stations Reporting

Nearby Weather Stations